Time;durP1;ratioP1;P1;durP2;ratioP2;P2;SDS_P1;SDS_P2;PMS_P1;PMS_P2;Temp;Humidity;BMP_temperature;BMP_pressure;BME280_temperature;BME280_humidity;BME280_pressure;Samples;Min_cycle;Max_cycle;Signal;HPM_P1;HPM_P2
2022/02/08 00:00:03;;;;;;;;;;;;;;;5.54;100.00;149052.64;1784167;79;21007;-60
2022/02/08 00:02:42;;;;;;;24.07;12.88;;;;;;;5.47;100.00;149034.56;1777224;79;21187;-60
2022/02/08 00:05:01;;;;;;;23.95;12.55;;;;;;;5.38;99.41;149012.58;1777569;80;20997;-60
2022/02/08 00:07:51;;;;;;;23.67;12.65;;;;;;;5.27;97.97;148985.44;1795240;79;20988;-62
2022/02/08 00:10:16;;;;;;;23.52;12.88;;;;;;;5.12;96.87;148949.22;1788266;79;21119;-65
2022/02/08 00:12:43;;;;;;;31.97;13.78;;;;;;;5.00;96.41;148918.23;1796771;78;21060;-61
2022/02/08 00:15:10;;;;;;;27.65;14.30;;;;;;;4.83;96.16;148876.88;1803516;78;22207;-61
2022/02/08 00:17:36;;;;;;;25.97;13.88;;;;;;;4.75;96.35;148856.17;1800065;78;21032;-60
2022/02/08 00:20:07;;;;;;;24.10;12.82;;;;;;;4.67;96.58;148835.53;1799354;78;21104;-60
2022/02/08 00:22:36;;;;;;;24.70;14.10;;;;;;;4.59;96.51;148817.45;1789335;79;21169;-59
2022/02/08 00:25:04;;;;;;;24.52;13.50;;;;;;;4.53;96.63;148801.97;1795285;79;21048;-60
2022/02/08 00:27:31;;;;;;;26.62;13.95;;;;;;;4.49;96.73;148791.59;1794854;79;21134;-60
2022/02/08 00:29:58;;;;;;;27.70;14.68;;;;;;;4.43;96.90;148776.11;1795185;79;21260;-60
2022/02/08 00:32:25;;;;;;;27.87;14.03;;;;;;;4.37;96.94;148760.62;1794952;79;21072;-60
2022/02/08 00:34:53;;;;;;;24.10;13.95;;;;;;;4.29;97.30;148741.25;1802015;79;21048;-60
2022/02/08 00:37:19;;;;;;;28.00;14.83;;;;;;;4.21;97.56;148721.86;1804597;78;21070;-60
2022/02/08 00:39:46;;;;;;;26.87;14.68;;;;;;;4.12;97.89;148698.64;1794908;79;21112;-60
2022/02/08 00:42:15;;;;;;;24.40;13.80;;;;;;;3.98;98.75;148665.05;1792120;79;20944;-60
2022/02/08 00:44:51;;;;;;;30.23;14.15;;;;;;;3.98;98.75;148665.05;1794521;79;21047;-61
2022/02/08 00:47:23;;;;;;;26.85;14.28;;;;;;;3.91;99.33;148645.67;1792248;79;21106;-61
2022/02/08 00:49:44;;;;;;;25.85;12.90;;;;;;;3.77;100.00;148610.81;1790401;79;21532;-60
2022/02/08 00:52:15;;;;;;;25.23;13.48;;;;;;;3.77;100.00;148610.81;1795223;79;21575;-61
2022/02/08 00:54:49;;;;;;;20.60;12.07;;;;;;;3.72;100.00;148600.50;1794915;79;21504;-61
2022/02/08 00:57:17;;;;;;;21.85;10.85;;;;;;;3.66;100.00;148583.72;1794891;79;21038;-62
2022/02/08 00:59:44;;;;;;;20.80;10.78;;;;;;;3.58;100.00;148565.66;1794841;79;21031;-62
2022/02/08 01:02:12;;;;;;;22.55;10.90;;;;;;;3.52;100.00;148548.87;1794721;79;21095;-62
2022/02/08 01:04:38;;;;;;;17.75;10.75;;;;;;;3.43;100.00;148528.23;1794750;79;21486;-61
2022/02/08 01:07:07;;;;;;;15.78;9.50;;;;;;;3.37;100.00;148512.72;1771899;79;21416;-60
2022/02/08 01:09:46;;;;;;;17.05;8.93;;;;;;;3.32;100.00;148499.81;1755144;81;21058;-59
2022/02/08 01:12:06;;;;;;;14.58;8.93;;;;;;;3.28;100.00;148489.50;1726156;81;21099;-61
2022/02/08 01:14:38;;;;;;;15.63;8.33;;;;;;;3.24;100.00;148479.19;1758215;79;21120;-60
2022/02/08 01:17:04;;;;;;;12.18;7.72;;;;;;;3.19;100.00;148466.25;1752959;80;21332;-60
2022/02/08 01:19:31;;;;;;;10.32;7.20;;;;;;;3.14;100.00;148455.94;1757164;79;21051;-60
2022/02/08 01:21:58;;;;;;;14.45;7.10;;;;;;;3.10;100.00;148444.36;1761248;79;21000;-62
2022/02/08 01:24:25;;;;;;;10.78;6.03;;;;;;;3.03;100.00;148427.58;1760696;79;21088;-61
2022/02/08 01:26:58;;;;;;;10.53;6.28;;;;;;;2.99;100.00;148417.27;1754594;81;21408;-61
2022/02/08 01:29:24;;;;;;;8.28;5.55;;;;;;;2.94;100.00;148404.33;1764796;79;21413;-62
2022/02/08 01:31:50;;;;;;;10.25;5.70;;;;;;;2.89;100.00;148391.44;1754821;79;21401;-59
2022/02/08 01:34:31;;;;;;;10.72;5.83;;;;;;;2.82;100.00;148375.97;1754350;79;21038;-60
2022/02/08 01:37:07;;;;;;;9.10;5.12;;;;;;;2.77;100.00;148363.09;1754756;79;22077;-61
2022/02/08 01:40:02;;;;;;;9.80;5.87;;;;;;;2.70;100.00;148346.31;1754629;79;21541;-62
2022/02/08 01:42:30;;;;;;;9.78;5.87;;;;;;;2.63;100.00;148326.95;1749245;81;21156;-61
2022/02/08 01:45:08;;;;;;;9.70;5.80;;;;;;;2.57;100.00;148314.06;1741592;81;21126;-61
2022/02/08 01:47:30;;;;;;;10.98;6.25;;;;;;;2.50;100.00;148295.97;1752411;81;21042;-63
2022/02/08 01:50:28;;;;;;;9.40;6.10;;;;;;;2.44;100.00;148280.52;1718375;83;21959;-61
2022/02/08 01:52:29;;;;;;;;;;;;;;;2.39;100.00;148267.63;1706416;83;21519;-62
2022/02/08 01:54:57;;;;;;;11.65;6.37;;;;;;;2.34;100.00;148254.75;1698082;83;21098;-60
2022/02/08 01:57:23;;;;;;;9.35;5.95;;;;;;;2.28;100.00;148241.81;1724862;81;21605;-62
2022/02/08 01:59:52;;;;;;;8.83;5.92;;;;;;;2.26;100.00;148236.66;1755845;81;21045;-61
2022/02/08 02:02:19;;;;;;;9.33;6.00;;;;;;;2.24;100.00;148230.25;1754789;80;20978;-60
2022/02/08 02:04:50;;;;;;;10.20;5.60;;;;;;;2.21;100.00;148223.78;1757777;79;21099;-62
2022/02/08 02:07:17;;;;;;;9.80;5.65;;;;;;;2.19;100.00;148218.62;1771946;79;21142;-61
2022/02/08 02:09:46;;;;;;;10.82;6.45;;;;;;;2.17;100.00;148212.16;1779651;80;21012;-62
2022/02/08 02:12:15;;;;;;;8.33;6.12;;;;;;;2.14;100.00;148207.02;1779573;79;21088;-60
2022/02/08 02:14:42;;;;;;;8.45;5.55;;;;;;;2.09;100.00;148194.13;1747062;81;21078;-61
2022/02/08 02:17:09;;;;;;;9.05;5.80;;;;;;;2.06;100.00;148185.09;1746141;81;21494;-59
2022/02/08 02:19:38;;;;;;;8.85;5.12;;;;;;;2.03;100.00;148177.36;1755702;80;21074;-61
2022/02/08 02:22:07;;;;;;;9.85;5.25;;;;;;;2.00;100.00;148172.22;1776951;80;21005;-60
2022/02/08 02:24:39;;;;;;;7.40;5.22;;;;;;;1.97;100.00;148164.48;1781917;80;21103;-60
2022/02/08 02:27:09;;;;;;;7.62;5.33;;;;;;;1.95;100.00;148159.33;1770832;80;21466;-60
2022/02/08 02:29:37;;;;;;;8.68;5.20;;;;;;;1.92;100.00;148151.59;1781977;80;21427;-61
2022/02/08 02:32:06;;;;;;;8.00;4.97;;;;;;;1.89;100.00;148143.88;1776606;80;21536;-61
2022/02/08 02:34:33;;;;;;;9.90;5.12;;;;;;;1.89;100.00;148142.56;1755929;81;21479;-61
2022/02/08 02:36:59;;;;;;;6.72;4.50;;;;;;;1.85;100.00;148134.84;1754976;81;20990;-61
2022/02/08 02:39:27;;;;;;;5.87;4.22;;;;;;;1.82;100.00;148127.11;1756442;81;21250;-60
2022/02/08 02:41:55;;;;;;;6.65;4.62;;;;;;;1.81;100.00;148123.22;1749456;81;21107;-62
2022/02/08 02:44:24;;;;;;;6.83;4.70;;;;;;;1.80;100.00;148120.64;1754773;80;21194;-61
2022/02/08 02:46:51;;;;;;;8.68;4.83;;;;;;;1.78;100.00;148116.81;1753434;80;21061;-61
2022/02/08 02:49:18;;;;;;;8.55;4.75;;;;;;;1.77;100.00;148112.92;1750702;81;21028;-60
2022/02/08 02:51:46;;;;;;;7.42;4.47;;;;;;;1.74;100.00;148106.45;1757753;80;21467;-60
2022/02/08 02:54:18;;;;;;;6.40;4.40;;;;;;;1.71;100.00;148100.05;1765149;80;21498;-62
2022/02/08 02:56:47;;;;;;;9.78;4.87;;;;;;;1.70;100.00;148096.16;1758418;80;21163;-63
2022/02/08 02:59:17;;;;;;;5.30;3.92;;;;;;;1.68;100.00;148092.31;1774584;80;21395;-60
2022/02/08 03:02:18;;;;;;;5.62;4.08;;;;;;;1.67;100.00;148089.75;1780140;80;20984;-60
2022/02/08 03:18:33;;;;;;;6.55;4.20;;;;;;;1.98;100.00;148165.75;1779726;80;21455;-60
2022/02/08 03:20:43;;;;;;;6.85;4.15;;;;;;;2.04;100.00;148181.25;1777114;80;21059;-61
2022/02/08 03:23:12;;;;;;;7.00;4.30;;;;;;;2.07;100.00;148188.97;1777302;80;22419;-61
2022/02/08 03:25:39;;;;;;;7.03;4.53;;;;;;;2.11;100.00;148198.02;1779858;80;21053;-61
2022/02/08 03:28:07;;;;;;;5.85;4.37;;;;;;;2.15;100.00;148208.33;1780734;80;21092;-61
2022/02/08 03:30:35;;;;;;;6.58;4.50;;;;;;;2.20;100.00;148221.20;1781455;80;21008;-61
2022/02/08 03:33:03;;;;;;;8.68;4.90;;;;;;;2.23;100.00;148228.94;1781078;80;21423;-60
2022/02/08 03:35:31;;;;;;;7.83;4.80;;;;;;;2.26;100.00;148235.41;1782405;80;21807;-60
2022/02/08 03:38:02;;;;;;;9.15;5.12;;;;;;;2.29;100.00;148244.39;1780030;80;21549;-62
2022/02/08 03:43:16;;;;;;;7.65;5.10;;;;;;;2.37;100.00;148262.48;1778712;80;21040;-60
2022/02/08 03:45:45;;;;;;;10.30;6.15;;;;;;;2.41;100.00;148274.05;1748788;80;21450;-62
2022/02/08 03:48:15;;;;;;;8.48;6.08;;;;;;;2.46;100.00;148284.41;1779037;80;21266;-62
2022/02/08 03:50:43;;;;;;;8.73;5.53;;;;;;;2.49;100.00;148292.14;1780907;80;21481;-61
2022/02/08 03:53:10;;;;;;;10.03;5.80;;;;;;;2.51;100.00;148298.56;1780365;80;21040;-61
2022/02/08 03:55:37;;;;;;;9.48;5.83;;;;;;;2.52;100.00;148301.13;1782531;80;21031;-62
2022/02/08 03:58:05;;;;;;;10.25;6.12;;;;;;;2.54;100.00;148306.34;1778609;80;21080;-62
2022/02/08 04:00:39;;;;;;;9.93;5.72;;;;;;;2.56;100.00;148310.17;1781055;80;21041;-62
2022/02/08 04:03:00;;;;;;;10.40;6.12;;;;;;;2.57;100.00;148314.06;1782071;80;20929;-62
2022/02/08 04:05:33;;;;;;;11.25;6.65;;;;;;;2.59;100.00;148317.91;1779808;80;21079;-60
2022/02/08 04:08:00;;;;;;;10.38;6.08;;;;;;;2.59;100.00;148317.91;1779591;80;21080;-60
2022/02/08 04:10:29;;;;;;;10.15;6.37;;;;;;;2.61;100.00;148321.80;1780398;80;20969;-61
2022/02/08 04:13:09;;;;;;;11.33;6.58;;;;;;;2.64;100.00;148329.53;1781303;80;21812;-61
2022/02/08 04:15:41;;;;;;;10.40;6.12;;;;;;;2.67;100.00;148338.58;1780516;80;21087;-60
2022/02/08 04:31:46;;;;;;;15.43;7.43;;;;;;;2.73;100.00;148352.72;1780434;80;21078;-60
2022/02/08 04:34:19;;;;;;;12.70;7.20;;;;;;;2.73;100.00;148352.72;1778243;80;21402;-61
2022/02/08 04:42:04;;;;;;;15.65;7.40;;;;;;;2.69;100.00;148342.42;1778061;79;28303;-60
2022/02/08 04:44:29;;;;;;;13.88;7.45;;;;;;;2.69;100.00;148342.42;1773391;80;20999;-59
2022/02/08 04:49:33;;;;;;;19.40;9.90;;;;;;;2.68;100.00;148341.16;1783640;80;21040;-59
2022/02/08 04:52:04;;;;;;;25.68;11.22;;;;;;;2.68;100.00;148339.84;1784956;80;21762;-59
2022/02/08 04:54:41;;;;;;;21.00;10.10;;;;;;;2.69;100.00;148343.73;1779100;80;21001;-61
2022/02/08 04:57:13;;;;;;;31.52;12.55;;;;;;;2.70;100.00;148345.00;1777653;80;21400;-61
2022/02/08 04:59:59;;;;;;;23.10;10.72;;;;;;;2.71;100.00;148347.56;1781294;80;21008;-61
2022/02/08 05:47:48;;;;;;;80.10;36.10;;;;;;;2.96;98.37;148410.80;1781585;80;21055;-61
2022/02/08 05:53:06;;;;;;;98.62;42.83;;;;;;;2.99;98.88;148417.27;1782274;80;20952;-61
2022/02/08 05:55:22;;;;;;;62.13;30.50;;;;;;;3.01;99.24;148422.42;1777862;80;21540;-60
2022/02/08 05:57:51;;;;;;;111.28;49.10;;;;;;;3.04;99.55;148428.84;1779092;80;21129;-61
2022/02/08 06:00:18;;;;;;;45.25;22.05;;;;;;;3.06;99.84;148434.00;1784038;80;21008;-60
2022/02/08 06:02:49;;;;;;;35.45;16.97;;;;;;;3.06;99.97;148435.31;1776052;80;21111;-61
2022/02/08 06:05:20;;;;;;;41.13;20.75;;;;;;;3.07;100.00;148437.89;1778312;80;21050;-61
2022/02/08 06:07:46;;;;;;;73.85;36.60;;;;;;;3.07;100.00;148437.89;1768258;80;21044;-61
2022/02/08 06:10:13;;;;;;;60.52;27.95;;;;;;;3.08;100.00;148439.16;1780732;80;21970;-60
2022/02/08 06:12:51;;;;;;;103.62;45.08;;;;;;;3.06;100.00;148434.00;1784023;79;21044;-61
2022/02/08 06:15:22;;;;;;;67.47;31.73;;;;;;;3.06;100.00;148435.31;1779964;80;21091;-62
2022/02/08 06:17:53;;;;;;;55.90;24.67;;;;;;;3.07;100.00;148437.89;1780774;80;21064;-61
2022/02/08 06:20:19;;;;;;;92.37;38.42;;;;;;;3.08;100.00;148439.16;1780339;80;21001;-61
2022/02/08 06:22:46;;;;;;;99.92;42.30;;;;;;;3.11;100.00;148446.94;1783504;80;21622;-61
2022/02/08 06:25:15;;;;;;;159.57;69.07;;;;;;;3.10;100.00;148445.62;1780425;80;21037;-61
2022/02/08 06:27:43;;;;;;;60.87;26.53;;;;;;;3.11;100.00;148448.20;1782371;79;21572;-61
2022/02/08 06:30:11;;;;;;;96.70;44.20;;;;;;;3.09;100.00;148443.05;1782752;80;20950;-61
2022/02/08 06:32:40;;;;;;;73.75;33.55;;;;;;;3.09;100.00;148441.73;1784151;80;21031;-61
2022/02/08 06:35:19;;;;;;;98.00;39.35;;;;;;;3.06;100.00;148435.31;1780774;80;21820;-61
2022/02/08 06:37:42;;;;;;;77.87;31.82;;;;;;;3.04;100.00;148430.16;1784927;79;21044;-61
2022/02/08 06:40:11;;;;;;;129.12;46.85;;;;;;;3.03;100.00;148427.58;1780742;80;21009;-60
2022/02/08 06:42:40;;;;;;;76.90;30.68;;;;;;;3.05;100.00;148432.73;1779481;80;21099;-60
2022/02/08 06:45:09;;;;;;;123.62;45.58;;;;;;;3.07;100.00;148437.89;1781660;80;20917;-62
2022/02/08 06:47:37;;;;;;;94.45;33.28;;;;;;;3.07;100.00;148437.89;1781383;79;21962;-62
2022/02/08 06:50:06;;;;;;;99.95;45.08;;;;;;;3.07;100.00;148437.89;1746486;81;21049;-61
2022/02/08 06:52:33;;;;;;;175.45;79.30;;;;;;;3.06;100.00;148434.00;1753347;80;21104;-60
2022/02/08 06:55:02;;;;;;;123.80;53.48;;;;;;;3.02;100.00;148425.00;1754965;80;21531;-61
2022/02/08 06:57:37;;;;;;;120.40;56.50;;;;;;;2.99;100.00;148417.27;1747337;80;21116;-62
2022/02/08 07:00:03;;;;;;;107.05;49.77;;;;;;;2.96;100.00;148409.48;1756286;80;21803;-61
2022/02/08 07:02:28;;;;;;;74.03;32.78;;;;;;;2.95;100.00;148406.91;1762462;80;21465;-63
2022/02/08 07:04:55;;;;;;;37.48;18.90;;;;;;;2.93;100.00;148401.75;1749509;80;22131;-60
2022/02/08 07:07:23;;;;;;;31.65;16.15;;;;;;;2.91;100.00;148396.59;1751739;80;21069;-61
2022/02/08 07:09:53;;;;;;;115.37;51.98;;;;;;;2.85;100.00;148383.70;1746721;80;21452;-60
2022/02/08 07:12:21;;;;;;;56.15;27.30;;;;;;;2.82;100.00;148375.97;1748075;80;21184;-60
2022/02/08 07:14:47;;;;;;;161.43;72.17;;;;;;;2.78;100.00;148365.66;1751177;80;21066;-61
2022/02/08 07:17:15;;;;;;;55.52;26.52;;;;;;;2.74;100.00;148355.31;1782166;78;21466;-62
2022/02/08 07:19:42;;;;;;;81.47;39.92;;;;;;;2.72;100.00;148351.47;1786772;79;21029;-61
2022/02/08 07:22:10;;;;;;;64.30;26.33;;;;;;;2.71;100.00;148347.56;1777221;78;21149;-62
2022/02/08 07:24:38;;;;;;;81.02;37.98;;;;;;;2.64;100.00;148330.80;1777673;78;21526;-61
2022/02/08 07:27:05;;;;;;;26.73;13.08;;;;;;;2.61;100.00;148323.06;1786116;78;21076;-61
2022/02/08 07:29:38;;;;;;;22.37;11.05;;;;;;;2.61;100.00;148323.06;1779876;78;21084;-61
2022/02/08 07:32:08;;;;;;;41.95;20.32;;;;;;;2.57;100.00;148314.06;1775180;78;21057;-63
2022/02/08 07:34:43;;;;;;;27.77;13.93;;;;;;;2.54;100.00;148306.34;1791471;78;21071;-61
2022/02/08 07:37:23;;;;;;;18.00;7.83;;;;;;;2.51;100.00;148297.30;1774404;79;21239;-61
2022/02/08 07:39:52;;;;;;;25.50;12.25;;;;;;;2.50;100.00;148295.97;1779261;78;21006;-61
2022/02/08 07:42:17;;;;;;;28.67;14.13;;;;;;;2.50;100.00;148294.72;1784161;78;21064;-60
2022/02/08 07:44:48;;;;;;;10.53;6.60;;;;;;;2.51;100.00;148298.56;1777396;78;21052;-62
2022/02/08 07:47:19;;;;;;;14.60;9.48;;;;;;;2.53;100.00;148302.44;1780499;78;26686;-62
2022/02/08 07:49:46;;;;;;;19.67;11.40;;;;;;;2.54;100.00;148305.02;1778063;78;21103;-61
2022/02/08 07:52:12;;;;;;;72.90;28.17;;;;;;;2.54;100.00;148306.34;1774669;79;21516;-61
2022/02/08 07:54:40;;;;;;;13.72;5.80;;;;;;;2.56;100.00;148311.48;1784708;78;21032;-60
2022/02/08 07:57:07;;;;;;;13.10;8.20;;;;;;;2.57;100.00;148314.06;1778804;78;21135;-61
2022/02/08 07:59:35;;;;;;;22.27;11.78;;;;;;;2.57;100.00;148314.06;1784419;78;21076;-61
2022/02/08 08:02:02;;;;;;;9.45;5.20;;;;;;;2.60;100.00;148319.22;1787079;78;21704;-60
2022/02/08 08:04:30;;;;;;;9.28;6.67;;;;;;;2.61;100.00;148321.80;1776808;78;21674;-60
2022/02/08 08:06:57;;;;;;;10.15;6.37;;;;;;;2.61;100.00;148321.80;1781076;78;21100;-61
2022/02/08 08:09:23;;;;;;;13.40;6.20;;;;;;;2.61;100.00;148321.80;1786341;78;21620;-62
2022/02/08 08:11:52;;;;;;;19.45;7.90;;;;;;;2.60;100.00;148319.22;1784268;78;21085;-62
2022/02/08 08:14:22;;;;;;;12.37;5.20;;;;;;;2.53;100.00;148303.70;1781611;78;21863;-60
2022/02/08 08:16:54;;;;;;;12.40;6.55;;;;;;;2.53;100.00;148303.70;1793583;78;20956;-62
2022/02/08 08:19:25;;;;;;;17.17;8.08;;;;;;;2.50;100.00;148295.97;1797237;78;20983;-61
2022/02/08 08:21:49;;;;;;;7.12;3.72;;;;;;;2.48;100.00;148290.83;1784418;78;21107;-62
2022/02/08 08:24:17;;;;;;;6.47;3.60;;;;;;;2.47;100.00;148288.25;1782756;78;21850;-62
2022/02/08 08:26:44;;;;;;;11.63;6.30;;;;;;;2.46;100.00;148285.67;1783468;78;21247;-62
2022/02/08 08:29:11;;;;;;;10.13;5.03;;;;;;;2.47;100.00;148288.25;1782992;78;21067;-60
2022/02/08 08:31:38;;;;;;;20.68;9.75;;;;;;;2.48;100.00;148290.83;1786455;78;21614;-60
2022/02/08 08:34:05;;;;;;;38.67;16.27;;;;;;;2.45;100.00;148283.09;1786200;78;21088;-60
2022/02/08 08:36:32;;;;;;;5.35;2.80;;;;;;;2.44;100.00;148280.52;1785722;78;21047;-61
2022/02/08 08:38:59;;;;;;;3.80;2.75;;;;;;;2.40;100.00;148270.20;1785985;78;21752;-60
2022/02/08 08:51:52;;;;;;;5.37;2.95;;;;;;;2.28;100.00;148241.81;1741711;80;21079;-60
2022/02/08 08:54:18;;;;;;;9.33;3.22;;;;;;;2.27;100.00;148239.25;1779459;78;21084;-60
2022/02/08 08:56:46;;;;;;;5.12;3.33;;;;;;;2.26;100.00;148236.66;1741600;80;21086;-61
2022/02/08 08:59:14;;;;;;;8.95;2.87;;;;;;;2.28;100.00;148241.81;1778396;78;21072;-62
2022/02/08 09:01:41;;;;;;;7.17;2.70;;;;;;;2.32;100.00;148249.55;1788198;78;21110;-63
2022/02/08 09:04:07;;;;;;;8.35;3.37;;;;;;;2.35;100.00;148257.33;1789755;78;21063;-63
2022/02/08 09:06:35;;;;;;;7.35;2.50;;;;;;;2.40;100.00;148270.20;1779497;78;21699;-61
2022/02/08 09:09:09;;;;;;;10.68;3.20;;;;;;;2.41;100.00;148272.78;1778567;78;21045;-61
2022/02/08 09:11:50;;;;;;;7.90;3.05;;;;;;;2.42;100.00;148275.36;1778809;78;21241;-64
2022/02/08 09:14:12;;;;;;;7.97;3.17;;;;;;;2.45;100.00;148283.09;1743182;80;21044;-61
2022/02/08 09:17:02;;;;;;;6.83;3.50;;;;;;;2.51;100.00;148298.56;1749838;80;21021;-62
2022/02/08 09:22:20;;;;;;;7.20;4.12;;;;;;;2.61;100.00;148321.80;1740154;80;21053;-62
2022/02/08 09:29:47;;;;;;;4.62;2.00;;;;;;;2.70;100.00;148345.00;1783785;78;21509;-62
2022/02/08 09:32:16;;;;;;;13.10;3.08;;;;;;;2.71;100.00;148347.56;1777893;78;21391;-61
2022/02/08 09:34:43;;;;;;;6.10;2.08;;;;;;;2.75;100.00;148357.88;1745263;80;21081;-60
2022/02/08 09:37:11;;;;;;;16.70;7.78;;;;;;;2.76;100.00;148360.45;1753857;80;21115;-61
2022/02/08 09:39:39;;;;;;;7.55;3.12;;;;;;;2.80;100.00;148369.50;1755488;80;20990;-61
2022/02/08 09:42:08;;;;;;;9.15;3.17;;;;;;;2.82;100.00;148374.66;1754118;80;22273;-61
2022/02/08 09:44:36;;;;;;;19.48;7.90;;;;;;;2.83;100.00;148378.55;1748741;80;21055;-62
2022/02/08 09:47:12;;;;;;;67.60;30.72;;;;;;;2.85;100.00;148382.39;1756823;80;21044;-62
2022/02/08 09:49:42;;;;;;;75.30;33.65;;;;;;;2.84;100.00;148381.12;1750323;80;21147;-62
2022/02/08 09:52:07;;;;;;;46.30;20.02;;;;;;;2.84;100.00;148379.81;1755757;80;21049;-63
2022/02/08 09:54:35;;;;;;;12.20;4.42;;;;;;;2.82;100.00;148375.97;1745653;80;40075;-61
2022/02/08 09:57:01;;;;;;;4.70;2.67;;;;;;;2.82;100.00;148374.66;1745539;80;20878;-61
2022/02/08 09:59:28;;;;;;;4.55;2.67;;;;;;;2.79;100.00;148366.92;1750830;80;21154;-62
2022/02/08 10:01:57;;;;;;;5.85;3.22;;;;;;;2.77;100.00;148363.09;1719281;81;21103;-61
2022/02/08 10:04:24;;;;;;;8.03;3.72;;;;;;;2.75;100.00;148356.63;1730415;80;21727;-59
2022/02/08 10:06:52;;;;;;;6.90;3.47;;;;;;;2.74;100.00;148355.31;1745094;80;21122;-59
2022/02/08 10:09:19;;;;;;;6.10;3.08;;;;;;;2.76;100.00;148359.19;1746406;80;21175;-60
2022/02/08 10:11:58;;;;;;;5.60;2.30;;;;;;;2.76;100.00;148360.45;1758913;80;22035;-62
2022/02/08 10:14:39;;;;;;;8.95;2.83;;;;;;;2.77;100.00;148363.09;1788886;78;21501;-61
2022/02/08 10:22:47;;;;;;;21.48;8.78;;;;;;;2.80;99.81;148370.81;1751428;80;21510;-61
2022/02/08 10:25:23;;;;;;;6.20;3.00;;;;;;;2.80;99.85;148370.81;1693810;81;21134;-60
2022/02/08 10:27:50;;;;;;;8.43;2.83;;;;;;;2.81;99.62;148372.08;1792304;78;21023;-61
2022/02/08 10:38:47;;;;;;;6.62;2.62;;;;;;;2.79;99.68;148368.23;1689960;83;21064;-62
2022/02/08 10:41:17;;;;;;;4.47;2.22;;;;;;;2.77;99.90;148363.09;1760820;78;21542;-61
2022/02/08 10:44:06;;;;;;;6.78;2.72;;;;;;;2.75;100.00;148357.88;1795683;78;21711;-61
2022/02/08 10:46:36;;;;;;;4.10;2.40;;;;;;;2.75;100.00;148357.88;1792396;78;21156;-61
2022/02/08 10:49:09;;;;;;;3.42;1.60;;;;;;;2.74;100.00;148355.31;1789667;78;21018;-61
2022/02/08 10:51:50;;;;;;;11.93;5.60;;;;;;;2.75;100.00;148357.88;1790190;78;21091;-62
2022/02/08 10:54:30;;;;;;;6.95;2.70;;;;;;;2.74;100.00;148355.31;1800862;78;21835;-61
2022/02/08 10:56:51;;;;;;;7.42;2.47;;;;;;;2.73;100.00;148352.72;1783739;78;21503;-61
2022/02/08 10:59:22;;;;;;;4.33;2.00;;;;;;;2.72;100.00;148351.47;1758115;79;22002;-61
2022/02/08 11:01:57;;;;;;;12.55;3.70;;;;;;;2.72;100.00;148351.47;1756378;80;20967;-61
2022/02/08 11:04:25;;;;;;;4.60;2.25;;;;;;;2.72;100.00;148350.16;1723146;81;21033;-64
2022/02/08 11:07:10;;;;;;;7.10;2.20;;;;;;;2.70;100.00;148345.00;1701075;81;21069;-61
2022/02/08 11:09:41;;;;;;;11.20;5.47;;;;;;;2.69;100.00;148342.42;1780626;78;21055;-61
2022/02/08 11:12:28;;;;;;;4.45;2.12;;;;;;;2.69;100.00;148343.73;1786492;78;23197;-63
2022/02/08 11:20:30;;;;;;;9.28;4.03;;;;;;;2.69;100.00;148342.42;1650220;84;21174;-62
2022/02/08 11:22:59;;;;;;;7.25;3.15;;;;;;;2.69;100.00;148342.42;1711581;78;21043;-62
2022/02/08 11:25:39;;;;;;;6.78;2.60;;;;;;;2.68;100.00;148339.84;1790110;78;21115;-62
2022/02/08 11:28:24;;;;;;;23.85;8.95;;;;;;;2.68;100.00;148339.84;1785160;78;21615;-62
2022/02/08 11:39:47;;;;;;;9.53;3.05;;;;;;;2.60;100.00;148320.48;1755211;80;21087;-62
2022/02/08 11:45:32;;;;;;;20.08;8.08;;;;;;;2.60;100.00;148319.22;1791352;78;21067;-62
2022/02/08 11:50:44;;;;;;;7.25;2.40;;;;;;;2.53;100.00;148302.44;1758715;78;21105;-63
2022/02/08 11:59:05;;;;;;;10.18;4.00;;;;;;;2.51;100.00;148298.56;1791249;78;20968;-61
2022/02/08 12:09:42;;;;;;;13.58;6.58;;;;;;;2.62;100.00;148324.38;1784504;78;21023;-62
2022/02/08 12:50:34;;;;;;;42.60;15.43;;;;;;;2.68;100.00;148339.84;1786693;78;21015;-62
2022/02/08 12:53:35;;;;;;;64.72;24.12;;;;;;;2.69;100.00;148342.42;1779716;78;21070;-63
2022/02/08 12:58:52;;;;;;;50.40;17.55;;;;;;;2.76;100.00;148360.45;1664184;83;21042;-60
2022/02/08 13:00:42;;;;;;;28.17;7.62;;;;;;;2.83;100.00;148377.23;1664965;83;21998;-60
2022/02/08 14:08:34;;;;;;;5.45;2.10;;;;;;;2.99;84.23;148417.27;1796193;78;21138;-61
2022/02/08 14:16:11;;;;;;;10.53;4.08;;;;;;;2.97;83.42;148412.06;1762808;79;21463;-61
2022/02/08 14:21:23;;;;;;;12.33;3.20;;;;;;;2.94;82.69;148404.33;1725718;81;21839;-62
2022/02/08 14:32:01;;;;;;;42.00;18.00;;;;;;;2.96;82.15;148409.48;1763484;80;21079;-62
2022/02/08 15:06:18;;;;;;;6.95;1.98;;;;;;;2.60;80.80;148320.48;1723158;81;21076;-61
2022/02/08 15:08:32;;;;;;;6.33;2.40;;;;;;;2.58;81.17;148315.33;1760377;80;21094;-62
2022/02/08 15:11:05;;;;;;;17.52;4.12;;;;;;;2.54;81.45;148305.02;1770468;78;21688;-65
2022/02/08 15:13:27;;;;;;;6.47;2.60;;;;;;;2.53;81.93;148302.44;1786753;78;22439;-61
2022/02/08 15:16:41;;;;;;;7.05;3.15;;;;;;;2.49;82.35;148293.41;1786501;78;21454;-60
2022/02/08 15:18:27;;;;;;;5.65;2.75;;;;;;;2.45;82.57;148283.09;1769739;78;21588;-61
2022/02/08 15:20:59;;;;;;;11.30;3.08;;;;;;;2.41;82.80;148272.78;1789827;78;21755;-61
2022/02/08 15:23:27;;;;;;;39.38;14.50;;;;;;;2.38;82.96;148265.06;1789267;78;21554;-61
2022/02/08 15:25:56;;;;;;;11.33;4.28;;;;;;;2.34;83.33;148254.75;1784821;78;21530;-61
2022/02/08 15:28:24;;;;;;;17.10;6.95;;;;;;;2.32;83.66;148249.55;1786600;78;20960;-60
2022/02/08 15:30:53;;;;;;;14.50;5.95;;;;;;;2.27;83.74;148239.25;1791464;78;21465;-60
2022/02/08 15:33:20;;;;;;;48.35;17.02;;;;;;;2.25;83.74;148232.83;1793274;78;21080;-60
2022/02/08 15:35:47;;;;;;;13.78;4.70;;;;;;;2.24;83.37;148231.52;1791351;78;21063;-59
2022/02/08 15:38:14;;;;;;;38.38;12.58;;;;;;;2.24;82.81;148231.52;1794640;78;21794;-60
2022/02/08 15:40:41;;;;;;;11.83;4.15;;;;;;;2.24;82.14;148230.25;1794256;78;21058;-61
2022/02/08 15:43:09;;;;;;;57.03;16.62;;;;;;;2.24;81.29;148230.25;1788599;78;21507;-61
2022/02/08 15:45:43;;;;;;;33.88;9.45;;;;;;;2.25;80.62;148234.09;1788779;78;21123;-64
2022/02/08 15:48:09;;;;;;;76.37;30.75;;;;;;;2.23;80.31;148228.94;1780957;78;21521;-62
2022/02/08 15:50:49;;;;;;;88.35;35.43;;;;;;;2.24;80.19;148231.52;1784250;78;21052;-62
2022/02/08 15:55:50;;;;;;;50.92;20.08;;;;;;;2.19;80.38;148217.31;1801884;78;20989;-60
2022/02/08 16:06:52;;;;;;;86.53;37.25;;;;;;;2.06;79.68;148185.09;1794074;78;21037;-61
2022/02/08 16:08:57;;;;;;;79.67;31.17;;;;;;;2.04;79.39;148179.94;1794809;78;21130;-60
2022/02/08 16:14:03;;;;;;;21.40;9.00;;;;;;;2.04;79.32;148179.94;1786384;78;21054;-60
2022/02/08 16:28:02;;;;;;;42.90;19.57;;;;;;;1.99;79.54;148169.64;1721054;80;21237;-61
2022/02/08 16:49:02;;;;;;;105.63;39.75;;;;;;;1.80;82.04;148120.64;1794854;78;21044;-61
2022/02/08 16:53:24;;;;;;;93.87;37.03;;;;;;;1.74;82.18;148105.19;1799461;78;21084;-61
2022/02/08 16:55:52;;;;;;;91.40;38.95;;;;;;;1.71;82.29;148098.73;1798389;78;23150;-61
2022/02/08 17:01:10;;;;;;;17.15;7.95;;;;;;;1.67;82.19;148089.75;1781158;78;21569;-61
2022/02/08 17:03:32;;;;;;;39.90;16.35;;;;;;;1.65;81.16;148084.55;1790510;78;21013;-61
2022/02/08 17:05:59;;;;;;;124.42;52.67;;;;;;;1.64;81.23;148081.97;1781553;78;21060;-61
2022/02/08 17:08:27;;;;;;;60.95;26.17;;;;;;;1.64;81.08;148080.70;1800302;78;21127;-62
2022/02/08 17:10:57;;;;;;;107.32;42.20;;;;;;;1.62;80.60;148076.81;1784762;78;21088;-61
2022/02/08 17:16:18;;;;;;;106.15;44.15;;;;;;;1.57;79.65;148065.25;1788485;78;21484;-60
2022/02/08 17:44:56;;;;;;;128.65;52.58;;;;;;;1.31;77.69;147999.53;1773391;78;21087;-63
2022/02/08 17:48:09;;;;;;;40.48;16.95;;;;;;;1.17;77.19;147963.44;1808052;78;21153;-62
2022/02/08 17:50:36;;;;;;;103.15;41.30;;;;;;;1.16;77.34;147960.86;1783526;78;21110;-62
2022/02/08 17:53:04;;;;;;;67.30;28.05;;;;;;;1.12;77.26;147953.14;1791041;78;21048;-61